Time,TemperatureF,DewpointF,PressureIn,WindDirection,WindDirectionDegrees,WindSpeedMPH,WindSpeedGustMPH,Humidity,HourlyPrecipIn,Conditions,Clouds,dailyrainin,SolarRadiationWatts/m^2,SoftwareType,DateUTC
2013-07-27 00:00:00,63.0,62.0,-100.00,South,180,0.0,-999.0,96,-99.99,,,-99.99,0.000000,,2013-07-27 04:00:00,
2013-07-27 00:43:00,63.0,62.0,-100.00,South,180,0.0,-999.0,96,-99.99,,,-99.99,0.000000,,2013-07-27 04:43:00,
2013-07-27 00:53:00,63.0,62.0,-100.00,South,180,0.0,-999.0,96,-99.99,,,-99.99,0.000000,,2013-07-27 04:53:00,
2013-07-27 01:00:00,63.0,62.0,-100.00,SSE,157,0.0,-999.0,97,-99.99,,,-99.99,0.000000,,2013-07-27 05:00:00,
2013-07-27 01:43:00,63.0,62.0,-100.00,SSE,157,0.0,-999.0,97,-99.99,,,-99.99,0.000000,,2013-07-27 05:43:00,
2013-07-27 01:52:00,63.0,62.0,-100.00,SSE,157,0.0,-999.0,97,-99.99,,,-99.99,0.000000,,2013-07-27 05:52:00,
2013-07-27 02:00:00,64.0,62.0,-100.00,South,180,3.0,-999.0,94,-99.99,,,-99.99,0.000000,,2013-07-27 06:00:00,
2013-07-27 02:43:00,64.0,62.0,-100.00,South,180,3.0,-999.0,94,-99.99,,,-99.99,0.000000,,2013-07-27 06:43:00,
2013-07-27 02:52:00,64.0,62.0,-100.00,South,180,3.0,-999.0,94,-99.99,,,-99.99,0.000000,,2013-07-27 06:52:00,
2013-07-27 03:00:00,63.0,62.0,-100.00,South,180,1.0,-999.0,95,-99.99,,,-99.99,0.000000,,2013-07-27 07:00:00,
2013-07-27 03:44:00,63.0,62.0,-100.00,South,180,1.0,-999.0,95,-99.99,,,-99.99,0.000000,,2013-07-27 07:44:00,
2013-07-27 03:53:00,63.0,62.0,-100.00,South,180,1.0,-999.0,95,-99.99,,,-99.99,0.000000,,2013-07-27 07:53:00,
2013-07-27 04:00:00,63.0,62.0,-100.00,South,180,0.0,-999.0,97,-99.99,,,-99.99,0.000000,,2013-07-27 08:00:00,
2013-07-27 04:43:00,63.0,62.0,-100.00,South,180,0.0,-999.0,97,-99.99,,,-99.99,0.000000,,2013-07-27 08:43:00,
2013-07-27 04:53:00,63.0,62.0,-100.00,South,180,0.0,-999.0,97,-99.99,,,-99.99,0.000000,,2013-07-27 08:53:00,
2013-07-27 05:00:00,63.0,63.0,-100.00,South,180,0.0,-999.0,97,-99.99,,,-99.99,0.000000,,2013-07-27 09:00:00,
2013-07-27 05:44:00,63.0,63.0,-100.00,South,180,0.0,-999.0,97,-99.99,,,-99.99,0.000000,,2013-07-27 09:44:00,
2013-07-27 05:52:00,63.0,63.0,-100.00,South,180,0.0,-999.0,97,-99.99,,,-99.99,0.000000,,2013-07-27 09:52:00,
2013-07-27 06:00:00,64.0,63.0,-100.00,SW,225,0.0,-999.0,97,-99.99,,,-99.99,0.000000,,2013-07-27 10:00:00,
2013-07-27 06:44:00,64.0,63.0,-100.00,SW,225,0.0,-999.0,97,-99.99,,,-99.99,0.000000,,2013-07-27 10:44:00,
2013-07-27 06:52:00,64.0,63.0,-100.00,SW,225,0.0,-999.0,97,-99.99,,,-99.99,0.000000,,2013-07-27 10:52:00,
2013-07-27 07:00:00,64.0,63.0,-100.00,South,180,0.0,-999.0,97,-99.99,,,-99.99,2.320000,,2013-07-27 11:00:00,
2013-07-27 07:44:00,64.0,63.0,-100.00,South,180,0.0,-999.0,97,-99.99,,,-99.99,2.320000,,2013-07-27 11:44:00,
2013-07-27 07:53:00,64.0,63.0,-100.00,South,180,0.0,-999.0,97,-99.99,,,-99.99,2.320000,,2013-07-27 11:53:00,
2013-07-27 08:00:00,64.0,63.0,-100.00,SSE,157,0.0,-999.0,97,-99.99,,,-99.99,11.600000,,2013-07-27 12:00:00,
2013-07-27 08:43:00,64.0,63.0,-100.00,SSE,157,0.0,-999.0,97,-99.99,,,-99.99,11.600000,,2013-07-27 12:43:00,
2013-07-27 08:52:00,64.0,63.0,-100.00,SSE,157,0.0,-999.0,97,-99.99,,,-99.99,11.600000,,2013-07-27 12:52:00,
2013-07-27 09:00:00,65.0,64.0,-100.00,SSW,202,1.0,-999.0,95,-99.99,,,-99.99,92.800003,,2013-07-27 13:00:00,
2013-07-27 09:44:00,65.0,64.0,-100.00,SSW,202,1.0,-999.0,95,-99.99,,,-99.99,92.800003,,2013-07-27 13:44:00,
2013-07-27 09:53:00,65.0,64.0,-100.00,SSW,202,1.0,-999.0,95,-99.99,,,-99.99,92.800003,,2013-07-27 13:53:00,
2013-07-27 10:00:00,67.0,63.0,-100.00,SW,225,2.0,-999.0,90,-99.99,,,-99.99,243.600006,,2013-07-27 14:00:00,
2013-07-27 10:44:00,67.0,63.0,-100.00,SW,225,2.0,-999.0,90,-99.99,,,-99.99,243.600006,,2013-07-27 14:44:00,
2013-07-27 10:54:00,67.0,63.0,-100.00,SW,225,2.0,-999.0,90,-99.99,,,-99.99,243.600006,,2013-07-27 14:54:00,
2013-07-27 11:00:00,68.0,63.0,-100.00,WSW,247,1.0,-999.0,84,-99.99,,,-99.99,357.279999,,2013-07-27 15:00:00,
2013-07-27 11:44:00,68.0,63.0,-100.00,WSW,247,1.0,-999.0,84,-99.99,,,-99.99,357.279999,,2013-07-27 15:44:00,
2013-07-27 11:53:00,68.0,63.0,-100.00,WSW,247,1.0,-999.0,84,-99.99,,,-99.99,357.279999,,2013-07-27 15:53:00,
2013-07-27 12:00:00,69.0,63.0,-100.00,WSW,247,2.0,-999.0,80,-99.99,,,-99.99,436.160004,,2013-07-27 16:00:00,
2013-07-27 12:33:00,69.0,63.0,-100.00,WSW,247,2.0,-999.0,80,-99.99,,,-99.99,436.160004,,2013-07-27 16:33:00,
2013-07-27 12:43:00,69.0,63.0,-100.00,WSW,247,2.0,-999.0,80,-99.99,,,-99.99,436.160004,,2013-07-27 16:43:00,
2013-07-27 12:54:00,69.0,63.0,-100.00,WSW,247,2.0,-999.0,80,-99.99,,,-99.99,436.160004,,2013-07-27 16:54:00,
2013-07-27 13:00:00,73.0,62.0,-100.00,SSW,202,4.0,-999.0,67,-99.99,,,-99.99,742.400024,,2013-07-27 17:00:00,
2013-07-27 13:32:00,73.0,62.0,-100.00,SSW,202,4.0,-999.0,67,-99.99,,,-99.99,742.400024,,2013-07-27 17:32:00,
2013-07-27 13:43:00,73.0,62.0,-100.00,SSW,202,4.0,-999.0,67,-99.99,,,-99.99,742.400024,,2013-07-27 17:43:00,
2013-07-27 13:54:00,73.0,62.0,-100.00,SSW,202,4.0,-999.0,67,-99.99,,,-99.99,742.400024,,2013-07-27 17:54:00,
2013-07-27 14:00:00,76.0,60.0,-100.00,SSW,202,2.0,-999.0,57,-99.99,,,-99.99,842.159973,,2013-07-27 18:00:00,
2013-07-27 14:33:00,76.0,60.0,-100.00,SSW,202,2.0,-999.0,57,-99.99,,,-99.99,842.159973,,2013-07-27 18:33:00,
2013-07-27 14:43:00,76.0,60.0,-100.00,SSW,202,2.0,-999.0,57,-99.99,,,-99.99,842.159973,,2013-07-27 18:43:00,
2013-07-27 14:53:00,76.0,60.0,-100.00,SSW,202,2.0,-999.0,57,-99.99,,,-99.99,842.159973,,2013-07-27 18:53:00,
2013-07-27 15:00:00,75.0,59.0,-100.00,West,270,4.0,-999.0,57,-99.99,,,-99.99,486.040009,,2013-07-27 19:00:00,
2013-07-27 15:43:00,75.0,59.0,-100.00,West,270,4.0,-999.0,57,-99.99,,,-99.99,486.040009,,2013-07-27 19:43:00,
2013-07-27 15:53:00,75.0,59.0,-100.00,West,270,4.0,-999.0,57,-99.99,,,-99.99,486.040009,,2013-07-27 19:53:00,
2013-07-27 16:00:00,70.0,60.0,-100.00,West,270,8.0,-999.0,71,0.01,,,-99.99,171.679993,,2013-07-27 20:00:00,
2013-07-27 16:33:00,70.0,60.0,-100.00,West,270,8.0,-999.0,71,0.01,,,-99.99,171.679993,,2013-07-27 20:33:00,
2013-07-27 16:43:00,70.0,60.0,-100.00,West,270,8.0,-999.0,71,0.01,,,-99.99,171.679993,,2013-07-27 20:43:00,
2013-07-27 16:52:00,70.0,60.0,-100.00,West,270,8.0,-999.0,71,0.01,,,-99.99,171.679993,,2013-07-27 20:52:00,
2013-07-27 17:00:00,68.0,61.0,-100.00,WNW,292,6.0,-999.0,80,-99.99,,,-99.99,423.399994,,2013-07-27 21:00:00,
2013-07-27 17:43:00,68.0,61.0,-100.00,WNW,292,6.0,-999.0,80,-99.99,,,-99.99,423.399994,,2013-07-27 21:43:00,
2013-07-27 17:53:00,68.0,61.0,-100.00,WNW,292,6.0,-999.0,80,-99.99,,,-99.99,423.399994,,2013-07-27 21:53:00,
2013-07-27 18:00:00,71.0,60.0,-100.00,NW,315,5.0,-999.0,68,-99.99,,,-99.99,406.000000,,2013-07-27 22:00:00,
2013-07-27 18:43:00,71.0,60.0,-100.00,NW,315,5.0,-999.0,68,-99.99,,,-99.99,406.000000,,2013-07-27 22:43:00,
2013-07-27 18:53:00,71.0,60.0,-100.00,NW,315,5.0,-999.0,68,-99.99,,,-99.99,406.000000,,2013-07-27 22:53:00,
2013-07-27 19:00:00,66.0,59.0,-100.00,WNW,292,7.0,-999.0,78,0.18,,,-99.99,70.760002,,2013-07-27 23:00:00,
2013-07-27 19:44:00,66.0,59.0,-100.00,WNW,292,7.0,-999.0,78,0.18,,,-99.99,70.760002,,2013-07-27 23:44:00,
2013-07-27 19:53:00,66.0,59.0,-100.00,WNW,292,7.0,-999.0,78,0.18,,,-99.99,70.760002,,2013-07-27 23:53:00,
2013-07-27 21:00:00,63.0,54.0,-100.00,West,270,11.0,-999.0,73,-99.99,,,-99.99,76.559998,,2013-07-28 01:00:00,
2013-07-27 21:43:00,63.0,54.0,-100.00,West,270,11.0,-999.0,73,-99.99,,,-99.99,76.559998,,2013-07-28 01:43:00,
2013-07-27 21:53:00,63.0,54.0,-100.00,West,270,11.0,-999.0,73,-99.99,,,-99.99,76.559998,,2013-07-28 01:53:00,
2013-07-27 22:00:00,59.0,52.0,-100.00,West,270,9.0,-999.0,77,-99.99,,,-99.99,1.160000,,2013-07-28 02:00:00,
2013-07-27 22:42:00,59.0,52.0,-100.00,West,270,9.0,-999.0,77,-99.99,,,-99.99,1.160000,,2013-07-28 02:42:00,
2013-07-27 22:53:00,59.0,52.0,-100.00,West,270,9.0,-999.0,77,-99.99,,,-99.99,1.160000,,2013-07-28 02:53:00,
2013-07-27 23:00:00,58.0,51.0,-100.00,West,270,8.0,-999.0,77,-99.99,,,-99.99,0.000000,,2013-07-28 03:00:00,
2013-07-27 23:32:00,58.0,51.0,-100.00,West,270,8.0,-999.0,77,-99.99,,,-99.99,0.000000,,2013-07-28 03:32:00,
2013-07-27 23:43:00,58.0,51.0,-100.00,West,270,8.0,-999.0,77,-99.99,,,-99.99,0.000000,,2013-07-28 03:43:00,
2013-07-27 23:53:00,58.0,51.0,-100.00,West,270,8.0,-999.0,77,-99.99,,,-99.99,0.000000,,2013-07-28 03:53:00,